PAL546 RPVM-RPMR
Flight info
| Callsign | PAL546 |
|---|---|
| Flight time | 0h 59m |
| Altitude | 37000 |
| Route | DUMEX4P DUMEX W6A LUMVI W22 COT W19 MELBY MELBY3P |
| Aircraft | A346/H-SDE2E3FGHIJ3J4J5M1RWXY/LB1D1 |
Departure
| Time | 2026-05-06 17:51 |
|---|---|
| Airport | Mactan Cebu International Airport (RPVM) |
Arrival
| Time | 2026-05-06 18:50 |
|---|---|
| Airport | General Santos International Airport (RPMR) |
| Time | Latitude | Longitude | Altitude | Speed | Heading |
|---|---|---|---|---|---|
| 2026-05-06 17:37 | 10.31336 | 123.98042 | 44 ft | 0 kts | 315° |
| 2026-05-06 17:37 | 10.31333 | 123.98045 | 44 ft | 2 kts | 313° |
| 2026-05-06 17:37 | 10.31324 | 123.98058 | 44 ft | 2 kts | 294° |
| 2026-05-06 17:38 | 10.31320 | 123.98072 | 44 ft | 2 kts | 274° |
| 2026-05-06 17:38 | 10.31321 | 123.98087 | 44 ft | 2 kts | 258° |
| 2026-05-06 17:38 | 10.31325 | 123.98102 | 44 ft | 2 kts | 242° |
| 2026-05-06 17:38 | 10.31334 | 123.98114 | 45 ft | 2 kts | 225° |
| 2026-05-06 17:39 | 10.31345 | 123.98125 | 44 ft | 2 kts | 222° |
| 2026-05-06 17:39 | 10.31356 | 123.98135 | 44 ft | 2 kts | 224° |
| 2026-05-06 17:39 | 10.31366 | 123.98145 | 44 ft | 2 kts | 225° |
| 2026-05-06 17:39 | 10.31370 | 123.98149 | 44 ft | 0 kts | 225° |
| 2026-05-06 17:43 | 10.31365 | 123.98144 | 44 ft | 2 kts | 225° |
| 2026-05-06 17:43 | 10.31341 | 123.98120 | 44 ft | 6 kts | 225° |
| 2026-05-06 17:43 | 10.31297 | 123.98075 | 44 ft | 10 kts | 224° |
| 2026-05-06 17:44 | 10.31239 | 123.98018 | 44 ft | 13 kts | 225° |
| 2026-05-06 17:44 | 10.31169 | 123.97946 | 44 ft | 14 kts | 225° |
| 2026-05-06 17:44 | 10.31091 | 123.97868 | 44 ft | 16 kts | 225° |
| 2026-05-06 17:44 | 10.31007 | 123.97784 | 44 ft | 18 kts | 224° |
| 2026-05-06 17:45 | 10.30913 | 123.97691 | 44 ft | 19 kts | 225° |
| 2026-05-06 17:45 | 10.30812 | 123.97588 | 44 ft | 21 kts | 225° |
| 2026-05-06 17:45 | 10.30704 | 123.97479 | 44 ft | 21 kts | 224° |
| 2026-05-06 17:45 | 10.30593 | 123.97369 | 44 ft | 23 kts | 224° |
| 2026-05-06 17:46 | 10.30474 | 123.97251 | 44 ft | 24 kts | 224° |
| 2026-05-06 17:46 | 10.30348 | 123.97124 | 45 ft | 26 kts | 225° |
| 2026-05-06 17:46 | 10.30212 | 123.96988 | 45 ft | 28 kts | 224° |
| 2026-05-06 17:46 | 10.30079 | 123.96856 | 45 ft | 20 kts | 225° |
| 2026-05-06 17:47 | 10.29974 | 123.96749 | 45 ft | 19 kts | 225° |
| 2026-05-06 17:47 | 10.29915 | 123.96708 | 44 ft | 7 kts | 178° |
| 2026-05-06 17:47 | 10.29863 | 123.96732 | 45 ft | 9 kts | 146° |
| 2026-05-06 17:47 | 10.29806 | 123.96784 | 44 ft | 12 kts | 134° |
| 2026-05-06 17:48 | 10.29741 | 123.96852 | 44 ft | 13 kts | 134° |
| 2026-05-06 17:48 | 10.29730 | 123.96898 | 44 ft | 7 kts | 72° |
| 2026-05-06 17:48 | 10.29761 | 123.96943 | 44 ft | 0 kts | 46° |
| 2026-05-06 17:50 | 10.29767 | 123.96950 | 44 ft | 9 kts | 46° |
| 2026-05-06 17:50 | 10.30021 | 123.97206 | 44 ft | 92 kts | 44° |
| 2026-05-06 17:50 | 10.30662 | 123.97848 | 45 ft | 161 kts | 45° |
| 2026-05-06 17:51 | 10.31536 | 123.98727 | 496 ft | 179 kts | 45° |
| 2026-05-06 17:51 | 10.32404 | 123.99612 | 1257 ft | 179 kts | 45° |
| 2026-05-06 17:51 | 10.33270 | 124.00493 | 2004 ft | 183 kts | 47° |
| 2026-05-06 17:51 | 10.33861 | 124.01672 | 2494 ft | 202 kts | 84° |
| 2026-05-06 17:52 | 10.33509 | 124.03119 | 2977 ft | 226 kts | 118° |
| 2026-05-06 17:52 | 10.32531 | 124.04461 | 3505 ft | 248 kts | 123° |
| 2026-05-06 17:52 | 10.31479 | 124.05902 | 4164 ft | 264 kts | 123° |
| 2026-05-06 17:52 | 10.30404 | 124.07407 | 5086 ft | 268 kts | 122° |
| 2026-05-06 17:53 | 10.29311 | 124.08952 | 6068 ft | 271 kts | 122° |
| 2026-05-06 17:53 | 10.28222 | 124.10498 | 6999 ft | 274 kts | 122° |
| 2026-05-06 17:53 | 10.27117 | 124.12072 | 7896 ft | 277 kts | 122° |
| 2026-05-06 17:53 | 10.26000 | 124.13665 | 8746 ft | 281 kts | 122° |
| 2026-05-06 17:54 | 10.24873 | 124.15274 | 9564 ft | 284 kts | 122° |
| 2026-05-06 17:54 | 10.23727 | 124.16910 | 10351 ft | 288 kts | 122° |
| 2026-05-06 17:54 | 10.22535 | 124.18614 | 10858 ft | 303 kts | 122° |
| 2026-05-06 17:54 | 10.21280 | 124.20409 | 11239 ft | 321 kts | 123° |
| 2026-05-06 17:55 | 10.19668 | 124.22074 | 11545 ft | 347 kts | 142° |
| 2026-05-06 17:55 | 10.17362 | 124.23086 | 11853 ft | 373 kts | 165° |
| 2026-05-06 17:55 | 10.14705 | 124.23268 | 12204 ft | 393 kts | 177° |
| 2026-05-06 17:55 | 10.11944 | 124.23304 | 12814 ft | 400 kts | 176° |
| 2026-05-06 17:56 | 10.09118 | 124.23367 | 13541 ft | 404 kts | 175° |
| 2026-05-06 17:56 | 10.06284 | 124.23441 | 14229 ft | 408 kts | 175° |
| 2026-05-06 17:56 | 10.03435 | 124.23518 | 14893 ft | 413 kts | 175° |
| 2026-05-06 17:56 | 10.00548 | 124.23598 | 15532 ft | 417 kts | 175° |
| 2026-05-06 17:57 | 9.97642 | 124.23680 | 16167 ft | 421 kts | 175° |
| 2026-05-06 17:57 | 9.94676 | 124.23762 | 16791 ft | 424 kts | 175° |
| 2026-05-06 17:57 | 9.91713 | 124.23843 | 17387 ft | 428 kts | 175° |
| 2026-05-06 17:57 | 9.88735 | 124.23927 | 17975 ft | 432 kts | 175° |
| 2026-05-06 17:58 | 9.85679 | 124.24013 | 18541 ft | 436 kts | 175° |
| 2026-05-06 17:58 | 9.82642 | 124.24098 | 19088 ft | 440 kts | 176° |
| 2026-05-06 17:58 | 9.79546 | 124.24184 | 19638 ft | 444 kts | 176° |
| 2026-05-06 17:58 | 9.76437 | 124.24271 | 20179 ft | 447 kts | 176° |
| 2026-05-06 17:59 | 9.73326 | 124.24358 | 20700 ft | 451 kts | 176° |
| 2026-05-06 17:59 | 9.70182 | 124.24445 | 21200 ft | 455 kts | 176° |
| 2026-05-06 17:59 | 9.66963 | 124.24534 | 21701 ft | 459 kts | 176° |
| 2026-05-06 17:59 | 9.63788 | 124.24622 | 22194 ft | 462 kts | 176° |
| 2026-05-06 18:00 | 9.60522 | 124.24713 | 22687 ft | 466 kts | 176° |
| 2026-05-06 18:00 | 9.57260 | 124.24803 | 23176 ft | 470 kts | 176° |
| 2026-05-06 18:00 | 9.53993 | 124.25011 | 23665 ft | 472 kts | 172° |
| 2026-05-06 18:00 | 9.50730 | 124.25516 | 24165 ft | 474 kts | 167° |
| 2026-05-06 18:01 | 9.47518 | 124.26310 | 24683 ft | 476 kts | 162° |
| 2026-05-06 18:01 | 9.44327 | 124.27313 | 25168 ft | 478 kts | 160° |
| 2026-05-06 18:01 | 9.41144 | 124.28370 | 25627 ft | 482 kts | 160° |
| 2026-05-06 18:01 | 9.37980 | 124.29427 | 26073 ft | 485 kts | 160° |
| 2026-05-06 18:02 | 9.34738 | 124.30506 | 26535 ft | 488 kts | 160° |
| 2026-05-06 18:02 | 9.31530 | 124.31567 | 26984 ft | 491 kts | 160° |
| 2026-05-06 18:02 | 9.28232 | 124.32651 | 27434 ft | 494 kts | 161° |
| 2026-05-06 18:02 | 9.24979 | 124.33716 | 28010 ft | 493 kts | 161° |
| 2026-05-06 18:03 | 9.21704 | 124.34785 | 28712 ft | 490 kts | 161° |
| 2026-05-06 18:03 | 9.18467 | 124.35841 | 29431 ft | 486 kts | 161° |
| 2026-05-06 18:03 | 9.15259 | 124.36887 | 30146 ft | 483 kts | 161° |
| 2026-05-06 18:03 | 9.12081 | 124.37925 | 30860 ft | 480 kts | 161° |
| 2026-05-06 18:04 | 9.08905 | 124.38961 | 31582 ft | 476 kts | 161° |
| 2026-05-06 18:04 | 9.05777 | 124.39982 | 32296 ft | 472 kts | 161° |
| 2026-05-06 18:04 | 9.02631 | 124.41009 | 33034 ft | 469 kts | 161° |
| 2026-05-06 18:04 | 8.99537 | 124.42019 | 33773 ft | 466 kts | 161° |
| 2026-05-06 18:05 | 8.96450 | 124.43026 | 34490 ft | 464 kts | 161° |
| 2026-05-06 18:05 | 8.93358 | 124.44034 | 35183 ft | 461 kts | 161° |
| 2026-05-06 18:05 | 8.90309 | 124.45027 | 35763 ft | 460 kts | 161° |
| 2026-05-06 18:05 | 8.87237 | 124.46030 | 36193 ft | 462 kts | 161° |
| 2026-05-06 18:06 | 8.84167 | 124.47031 | 36554 ft | 465 kts | 161° |
| 2026-05-06 18:06 | 8.80999 | 124.48064 | 36838 ft | 467 kts | 161° |
| 2026-05-06 18:06 | 8.74814 | 124.50080 | 36849 ft | 469 kts | 161° |
| 2026-05-06 18:07 | 8.68572 | 124.52114 | 36857 ft | 469 kts | 161° |
| 2026-05-06 18:07 | 8.62342 | 124.54144 | 36862 ft | 469 kts | 161° |
| 2026-05-06 18:08 | 8.55987 | 124.56215 | 36868 ft | 485 kts | 161° |
| 2026-05-06 18:08 | 8.52801 | 124.57252 | 36865 ft | 474 kts | 161° |
| 2026-05-06 18:08 | 8.49642 | 124.58178 | 36868 ft | 471 kts | 166° |
| 2026-05-06 18:09 | 8.43137 | 124.59121 | 36889 ft | 471 kts | 176° |
| 2026-05-06 18:09 | 8.36591 | 124.58819 | 36909 ft | 471 kts | 187° |
| 2026-05-06 18:10 | 8.30176 | 124.57298 | 36936 ft | 472 kts | 196° |
| 2026-05-06 18:10 | 8.23884 | 124.55271 | 36947 ft | 472 kts | 197° |
| 2026-05-06 18:11 | 8.18682 | 124.53580 | 36964 ft | 472 kts | 197° |
| 2026-05-06 18:11 | 8.11358 | 124.51216 | 36993 ft | 472 kts | 197° |
| 2026-05-06 18:12 | 8.05101 | 124.49203 | 37007 ft | 472 kts | 197° |
| 2026-05-06 18:12 | 7.98813 | 124.47182 | 37022 ft | 472 kts | 197° |
| 2026-05-06 18:13 | 7.92544 | 124.45174 | 37040 ft | 471 kts | 197° |
| 2026-05-06 18:13 | 7.86260 | 124.43165 | 37047 ft | 471 kts | 197° |
| 2026-05-06 18:14 | 7.80069 | 124.41183 | 37050 ft | 470 kts | 197° |
| 2026-05-06 18:14 | 7.73801 | 124.39175 | 37050 ft | 470 kts | 197° |
| 2026-05-06 18:15 | 7.67538 | 124.37169 | 37029 ft | 470 kts | 197° |
| 2026-05-06 18:15 | 7.61305 | 124.35173 | 36993 ft | 470 kts | 197° |
| 2026-05-06 18:16 | 7.55042 | 124.33168 | 36798 ft | 472 kts | 197° |
| 2026-05-06 18:16 | 7.51896 | 124.32161 | 36078 ft | 473 kts | 197° |
| 2026-05-06 18:16 | 7.48725 | 124.31146 | 35347 ft | 474 kts | 197° |
| 2026-05-06 18:17 | 7.45599 | 124.30145 | 34666 ft | 473 kts | 197° |
| 2026-05-06 18:17 | 7.42475 | 124.29146 | 34019 ft | 472 kts | 197° |
| 2026-05-06 18:17 | 7.39355 | 124.28146 | 33381 ft | 470 kts | 197° |
| 2026-05-06 18:17 | 7.36191 | 124.27135 | 32707 ft | 470 kts | 197° |
| 2026-05-06 18:18 | 7.33093 | 124.26142 | 32108 ft | 470 kts | 197° |
| 2026-05-06 18:18 | 7.29985 | 124.25147 | 31442 ft | 471 kts | 197° |
| 2026-05-06 18:18 | 7.26841 | 124.24143 | 30714 ft | 474 kts | 197° |
| 2026-05-06 18:18 | 7.23664 | 124.23126 | 29909 ft | 479 kts | 197° |
| 2026-05-06 18:19 | 7.20423 | 124.22297 | 29030 ft | 483 kts | 186° |
| 2026-05-06 18:19 | 7.17060 | 124.22394 | 28192 ft | 485 kts | 168° |
| 2026-05-06 18:19 | 7.13847 | 124.23458 | 27376 ft | 485 kts | 152° |
| 2026-05-06 18:19 | 7.11084 | 124.25346 | 26737 ft | 481 kts | 139° |
| 2026-05-06 18:20 | 7.08488 | 124.27496 | 26217 ft | 477 kts | 138° |
| 2026-05-06 18:20 | 7.06023 | 124.29530 | 25738 ft | 473 kts | 139° |
| 2026-05-06 18:20 | 7.03471 | 124.31623 | 25189 ft | 471 kts | 139° |
| 2026-05-06 18:20 | 7.00948 | 124.33682 | 24695 ft | 467 kts | 139° |
| 2026-05-06 18:21 | 6.98445 | 124.35717 | 24217 ft | 462 kts | 139° |
| 2026-05-06 18:21 | 6.95918 | 124.37768 | 23747 ft | 458 kts | 139° |
| 2026-05-06 18:21 | 6.93457 | 124.39762 | 23294 ft | 454 kts | 139° |
| 2026-05-06 18:21 | 6.91026 | 124.41732 | 22850 ft | 450 kts | 139° |
| 2026-05-06 18:22 | 6.88577 | 124.43716 | 22393 ft | 446 kts | 139° |
| 2026-05-06 18:22 | 6.86176 | 124.45660 | 21956 ft | 442 kts | 139° |
| 2026-05-06 18:22 | 6.83800 | 124.47582 | 21524 ft | 438 kts | 139° |
| 2026-05-06 18:22 | 6.81427 | 124.49503 | 21088 ft | 435 kts | 139° |
| 2026-05-06 18:23 | 6.79094 | 124.51390 | 20645 ft | 431 kts | 139° |
| 2026-05-06 18:23 | 6.76744 | 124.53292 | 20216 ft | 427 kts | 138° |
| 2026-05-06 18:23 | 6.74455 | 124.55146 | 19790 ft | 424 kts | 138° |
| 2026-05-06 18:23 | 6.72148 | 124.57012 | 19353 ft | 421 kts | 138° |
| 2026-05-06 18:24 | 6.69887 | 124.58842 | 18931 ft | 417 kts | 138° |
| 2026-05-06 18:24 | 6.67616 | 124.60678 | 18502 ft | 414 kts | 138° |
| 2026-05-06 18:24 | 6.65357 | 124.62467 | 18079 ft | 411 kts | 140° |
| 2026-05-06 18:24 | 6.63077 | 124.64197 | 17652 ft | 408 kts | 140° |
| 2026-05-06 18:25 | 6.60827 | 124.65890 | 17230 ft | 406 kts | 140° |
| 2026-05-06 18:25 | 6.58566 | 124.67593 | 16794 ft | 403 kts | 140° |
| 2026-05-06 18:25 | 6.56524 | 124.69137 | 16396 ft | 401 kts | 140° |
| 2026-05-06 18:25 | 6.54303 | 124.70819 | 15955 ft | 399 kts | 140° |
| 2026-05-06 18:26 | 6.52074 | 124.72508 | 15507 ft | 397 kts | 140° |
| 2026-05-06 18:26 | 6.49887 | 124.74168 | 15070 ft | 395 kts | 140° |
| 2026-05-06 18:26 | 6.47687 | 124.75835 | 14626 ft | 393 kts | 140° |
| 2026-05-06 18:26 | 6.45520 | 124.77480 | 14190 ft | 391 kts | 140° |
| 2026-05-06 18:27 | 6.43366 | 124.79112 | 13756 ft | 388 kts | 140° |
| 2026-05-06 18:27 | 6.41212 | 124.80749 | 13322 ft | 386 kts | 140° |
| 2026-05-06 18:27 | 6.39202 | 124.82514 | 12886 ft | 382 kts | 133° |
| 2026-05-06 18:27 | 6.37419 | 124.84504 | 12444 ft | 378 kts | 126° |
| 2026-05-06 18:28 | 6.35870 | 124.86629 | 12008 ft | 375 kts | 123° |
| 2026-05-06 18:28 | 6.34400 | 124.88760 | 11574 ft | 372 kts | 122° |
| 2026-05-06 18:28 | 6.32935 | 124.90897 | 11136 ft | 370 kts | 122° |
| 2026-05-06 18:28 | 6.31483 | 124.93000 | 10710 ft | 355 kts | 123° |
| 2026-05-06 18:29 | 6.30057 | 124.94884 | 10586 ft | 327 kts | 127° |
| 2026-05-06 18:29 | 6.28651 | 124.96565 | 10521 ft | 301 kts | 128° |
| 2026-05-06 18:29 | 6.27310 | 124.98159 | 10508 ft | 294 kts | 128° |
| 2026-05-06 18:29 | 6.25994 | 124.99727 | 10412 ft | 294 kts | 128° |
| 2026-05-06 18:30 | 6.24675 | 125.01297 | 10311 ft | 293 kts | 128° |
| 2026-05-06 18:30 | 6.23360 | 125.02866 | 10220 ft | 292 kts | 128° |
| 2026-05-06 18:30 | 6.22040 | 125.04436 | 10128 ft | 291 kts | 128° |
| 2026-05-06 18:30 | 6.20737 | 125.05987 | 9972 ft | 292 kts | 128° |
| 2026-05-06 18:31 | 6.19426 | 125.07547 | 9629 ft | 292 kts | 128° |
| 2026-05-06 18:31 | 6.18128 | 125.09093 | 9310 ft | 291 kts | 128° |
| 2026-05-06 18:31 | 6.16810 | 125.10659 | 8987 ft | 289 kts | 128° |
| 2026-05-06 18:31 | 6.15522 | 125.12193 | 8670 ft | 288 kts | 128° |
| 2026-05-06 18:32 | 6.14234 | 125.13724 | 8358 ft | 287 kts | 128° |
| 2026-05-06 18:32 | 6.12943 | 125.15260 | 8042 ft | 286 kts | 128° |
| 2026-05-06 18:32 | 6.11655 | 125.16791 | 7732 ft | 284 kts | 129° |
| 2026-05-06 18:32 | 6.10166 | 125.18093 | 7385 ft | 286 kts | 151° |
| 2026-05-06 18:33 | 6.08277 | 125.18659 | 7078 ft | 287 kts | 172° |
| 2026-05-06 18:33 | 6.06280 | 125.18883 | 6782 ft | 285 kts | 173° |
| 2026-05-06 18:33 | 6.04297 | 125.19094 | 6482 ft | 284 kts | 173° |
| 2026-05-06 18:33 | 6.02322 | 125.19313 | 6179 ft | 284 kts | 173° |
| 2026-05-06 18:34 | 6.00359 | 125.19541 | 5882 ft | 283 kts | 173° |
| 2026-05-06 18:34 | 5.98420 | 125.19773 | 5587 ft | 281 kts | 172° |
| 2026-05-06 18:34 | 5.96479 | 125.20008 | 5294 ft | 280 kts | 172° |
| 2026-05-06 18:34 | 5.94536 | 125.20245 | 4997 ft | 279 kts | 172° |
| 2026-05-06 18:35 | 5.92593 | 125.20483 | 4700 ft | 278 kts | 173° |
| 2026-05-06 18:35 | 5.90656 | 125.20578 | 4364 ft | 277 kts | 190° |
| 2026-05-06 18:35 | 5.88948 | 125.19757 | 4046 ft | 274 kts | 225° |
| 2026-05-06 18:35 | 5.87947 | 125.18169 | 3743 ft | 270 kts | 255° |
| 2026-05-06 18:36 | 5.87690 | 125.16303 | 3538 ft | 263 kts | 266° |
| 2026-05-06 18:36 | 5.87527 | 125.14529 | 3534 ft | 249 kts | 265° |
| 2026-05-06 18:36 | 5.87610 | 125.12855 | 3464 ft | 236 kts | 293° |
| 2026-05-06 18:36 | 5.88607 | 125.11644 | 3413 ft | 227 kts | 333° |
| 2026-05-06 18:37 | 5.90111 | 125.11306 | 3313 ft | 218 kts | 358° |
| 2026-05-06 18:37 | 5.91134 | 125.11264 | 3230 ft | 217 kts | 356° |
| 2026-05-06 18:37 | 5.93112 | 125.11118 | 3006 ft | 208 kts | 354° |
| 2026-05-06 18:37 | 5.94525 | 125.10976 | 2663 ft | 202 kts | 354° |
| 2026-05-06 18:38 | 5.95901 | 125.10822 | 2349 ft | 195 kts | 354° |
| 2026-05-06 18:38 | 5.97245 | 125.10662 | 2078 ft | 187 kts | 354° |
| 2026-05-06 18:38 | 5.98525 | 125.10507 | 1824 ft | 183 kts | 354° |
| 2026-05-06 18:38 | 5.99784 | 125.10355 | 1570 ft | 182 kts | 354° |
| 2026-05-06 18:39 | 6.01023 | 125.10204 | 1296 ft | 174 kts | 354° |
| 2026-05-06 18:39 | 6.02199 | 125.10059 | 1070 ft | 162 kts | 354° |
| 2026-05-06 18:39 | 6.03305 | 125.09912 | 897 ft | 157 kts | 353° |
| 2026-05-06 18:40 | 6.05433 | 125.09642 | 553 ft | 147 kts | 354° |
| 2026-05-06 18:40 | 6.06555 | 125.09503 | 964 ft | 172 kts | 354° |
| 2026-05-06 18:40 | 6.07750 | 125.09358 | 1748 ft | 178 kts | 355° |
| 2026-05-06 18:40 | 6.08941 | 125.09304 | 2529 ft | 175 kts | 8° |
| 2026-05-06 18:41 | 6.09998 | 125.09954 | 2931 ft | 192 kts | 56° |
| 2026-05-06 18:41 | 6.10277 | 125.11330 | 3041 ft | 212 kts | 100° |
| 2026-05-06 18:41 | 6.09499 | 125.12577 | 3050 ft | 215 kts | 140° |
| 2026-05-06 18:41 | 6.08202 | 125.13329 | 3059 ft | 216 kts | 156° |
| 2026-05-06 18:42 | 6.06778 | 125.13880 | 3048 ft | 221 kts | 160° |
| 2026-05-06 18:42 | 6.05352 | 125.14389 | 3045 ft | 212 kts | 161° |
| 2026-05-06 18:42 | 6.04001 | 125.14868 | 3017 ft | 196 kts | 161° |
| 2026-05-06 18:42 | 6.02775 | 125.15308 | 3001 ft | 178 kts | 160° |
| 2026-05-06 18:43 | 6.01646 | 125.15730 | 3004 ft | 174 kts | 160° |
| 2026-05-06 18:43 | 6.00411 | 125.16202 | 3052 ft | 204 kts | 159° |
| 2026-05-06 18:43 | 5.98982 | 125.16759 | 3048 ft | 234 kts | 159° |
| 2026-05-06 18:43 | 5.97421 | 125.17375 | 3037 ft | 245 kts | 159° |
| 2026-05-06 18:44 | 5.95820 | 125.18009 | 3027 ft | 247 kts | 159° |
| 2026-05-06 18:44 | 5.94153 | 125.18509 | 3015 ft | 247 kts | 173° |
| 2026-05-06 18:44 | 5.92429 | 125.18653 | 3019 ft | 248 kts | 178° |
| 2026-05-06 18:44 | 5.90705 | 125.18721 | 3017 ft | 247 kts | 179° |
| 2026-05-06 18:45 | 5.88965 | 125.18771 | 3013 ft | 248 kts | 180° |
| 2026-05-06 18:45 | 5.87326 | 125.18449 | 2980 ft | 235 kts | 213° |
| 2026-05-06 18:45 | 5.86306 | 125.17247 | 2998 ft | 228 kts | 254° |
| 2026-05-06 18:45 | 5.86132 | 125.16211 | 3020 ft | 228 kts | 270° |
| 2026-05-06 18:46 | 5.86885 | 125.14311 | 2989 ft | 226 kts | 315° |
| 2026-05-06 18:46 | 5.88068 | 125.13253 | 2997 ft | 226 kts | 323° |
| 2026-05-06 18:46 | 5.89384 | 125.12374 | 3005 ft | 226 kts | 331° |
| 2026-05-06 18:46 | 5.90818 | 125.11700 | 2961 ft | 226 kts | 340° |
| 2026-05-06 18:47 | 5.92311 | 125.11266 | 2937 ft | 215 kts | 348° |
| 2026-05-06 18:47 | 5.93752 | 125.11052 | 2779 ft | 201 kts | 353° |
| 2026-05-06 18:47 | 5.95116 | 125.10894 | 2493 ft | 192 kts | 354° |
| 2026-05-06 18:47 | 5.96422 | 125.10745 | 2229 ft | 185 kts | 354° |
| 2026-05-06 18:48 | 5.97697 | 125.10597 | 1987 ft | 183 kts | 354° |
| 2026-05-06 18:48 | 5.98942 | 125.10448 | 1731 ft | 178 kts | 354° |
| 2026-05-06 18:48 | 6.00154 | 125.10302 | 1473 ft | 170 kts | 354° |
| 2026-05-06 18:48 | 6.01295 | 125.10162 | 1230 ft | 160 kts | 354° |
| 2026-05-06 18:49 | 6.02389 | 125.10028 | 1008 ft | 156 kts | 354° |
| 2026-05-06 18:49 | 6.03456 | 125.09892 | 798 ft | 156 kts | 353° |
| 2026-05-06 18:49 | 6.04543 | 125.09753 | 594 ft | 154 kts | 354° |
| 2026-05-06 18:49 | 6.05527 | 125.09619 | 543 ft | 134 kts | 7° |
| 2026-05-06 18:50 | 6.06254 | 125.09559 | 542 ft | 76 kts | 360° |
| 2026-05-06 18:50 | 6.06623 | 125.09520 | 542 ft | 30 kts | 352° |
| 2026-05-06 18:50 | 6.06823 | 125.09493 | 542 ft | 26 kts | 352° |
| 2026-05-06 18:50 | 6.06998 | 125.09472 | 542 ft | 24 kts | 353° |
| 2026-05-06 18:51 | 6.07111 | 125.09468 | 542 ft | 8 kts | 34° |
| 2026-05-06 18:51 | 6.07140 | 125.09534 | 542 ft | 11 kts | 84° |
| 2026-05-06 18:51 | 6.07157 | 125.09593 | 542 ft | 8 kts | 39° |
| 2026-05-06 18:51 | 6.07221 | 125.09607 | 542 ft | 10 kts | 351° |
| 2026-05-06 18:52 | 6.07256 | 125.09558 | 542 ft | 10 kts | 276° |
| 2026-05-06 18:52 | 6.07251 | 125.09476 | 542 ft | 11 kts | 261° |
| 2026-05-06 18:52 | 6.07215 | 125.09452 | 542 ft | 8 kts | 186° |
| 2026-05-06 18:52 | 6.07147 | 125.09454 | 542 ft | 11 kts | 174° |
| 2026-05-06 18:53 | 6.07056 | 125.09465 | 542 ft | 14 kts | 174° |
| 2026-05-06 18:53 | 6.06947 | 125.09477 | 542 ft | 16 kts | 173° |
| 2026-05-06 18:53 | 6.06825 | 125.09493 | 542 ft | 18 kts | 172° |
| 2026-05-06 18:53 | 6.06688 | 125.09510 | 542 ft | 20 kts | 173° |
| 2026-05-06 18:54 | 6.06538 | 125.09528 | 542 ft | 22 kts | 173° |
| 2026-05-06 18:54 | 6.06368 | 125.09550 | 542 ft | 27 kts | 173° |
| 2026-05-06 18:54 | 6.06154 | 125.09576 | 542 ft | 31 kts | 173° |
| 2026-05-06 18:54 | 6.05951 | 125.09599 | 542 ft | 20 kts | 173° |
| 2026-05-06 18:55 | 6.05867 | 125.09610 | 542 ft | 8 kts | 172° |
| 2026-05-06 18:55 | 6.05827 | 125.09647 | 542 ft | 9 kts | 107° |
| 2026-05-06 18:55 | 6.05828 | 125.09723 | 542 ft | 12 kts | 85° |
| 2026-05-06 18:55 | 6.05839 | 125.09814 | 542 ft | 13 kts | 84° |
| 2026-05-06 18:56 | 6.05817 | 125.09856 | 542 ft | 7 kts | 150° |
| 2026-05-06 18:56 | 6.05757 | 125.09872 | 542 ft | 7 kts | 171° |
| 2026-05-06 18:56 | 6.05722 | 125.09888 | 542 ft | 5 kts | 118° |
| 2026-05-06 18:56 | 6.05710 | 125.09928 | 541 ft | 5 kts | 93° |
| 2026-05-06 18:57 | 6.05711 | 125.09949 | 542 ft | 0 kts | 87° |